sensor_id;sensor_type;location;lat;lon;timestamp;P1;durP1;ratioP1;P2;durP2;ratioP2
10461;SDS011;5278;42.656;23.374;2022-09-01T00:01:33;10.67;;;9.43;;
10461;SDS011;5278;42.656;23.374;2022-09-01T00:04:03;9.97;;;8.97;;
10461;SDS011;5278;42.656;23.374;2022-09-01T00:06:32;10.27;;;9.27;;
10461;SDS011;5278;42.656;23.374;2022-09-01T00:09:01;10.43;;;9.17;;
10461;SDS011;5278;42.656;23.374;2022-09-01T00:11:30;9.73;;;8.83;;
10461;SDS011;5278;42.656;23.374;2022-09-01T00:13:58;10.30;;;9.30;;
10461;SDS011;5278;42.656;23.374;2022-09-01T00:16:28;12.30;;;8.77;;
10461;SDS011;5278;42.656;23.374;2022-09-01T00:18:56;11.07;;;9.33;;
10461;SDS011;5278;42.656;23.374;2022-09-01T00:21:25;10.50;;;9.60;;
10461;SDS011;5278;42.656;23.374;2022-09-01T00:23:55;11.13;;;9.70;;
10461;SDS011;5278;42.656;23.374;2022-09-01T00:26:22;9.60;;;8.67;;
10461;SDS011;5278;42.656;23.374;2022-09-01T00:28:49;10.60;;;9.37;;
10461;SDS011;5278;42.656;23.374;2022-09-01T00:31:16;11.93;;;9.33;;
10461;SDS011;5278;42.656;23.374;2022-09-01T00:33:46;10.80;;;9.70;;
10461;SDS011;5278;42.656;23.374;2022-09-01T00:36:14;12.43;;;11.07;;
10461;SDS011;5278;42.656;23.374;2022-09-01T00:38:41;15.97;;;10.83;;
10461;SDS011;5278;42.656;23.374;2022-09-01T00:41:08;13.53;;;10.80;;
10461;SDS011;5278;42.656;23.374;2022-09-01T00:43:36;12.27;;;10.37;;
10461;SDS011;5278;42.656;23.374;2022-09-01T00:46:10;11.77;;;10.50;;
10461;SDS011;5278;42.656;23.374;2022-09-01T00:48:39;10.70;;;9.57;;
10461;SDS011;5278;42.656;23.374;2022-09-01T00:51:08;10.90;;;9.90;;
10461;SDS011;5278;42.656;23.374;2022-09-01T00:53:36;10.87;;;9.60;;
10461;SDS011;5278;42.656;23.374;2022-09-01T00:56:06;11.30;;;10.13;;
10461;SDS011;5278;42.656;23.374;2022-09-01T00:58:34;17.07;;;10.57;;
10461;SDS011;5278;42.656;23.374;2022-09-01T01:01:03;12.63;;;11.30;;
10461;SDS011;5278;42.656;23.374;2022-09-01T01:03:30;12.93;;;11.27;;
10461;SDS011;5278;42.656;23.374;2022-09-01T01:05:59;11.93;;;10.73;;
10461;SDS011;5278;42.656;23.374;2022-09-01T01:08:34;12.17;;;10.90;;
10461;SDS011;5278;42.656;23.374;2022-09-01T01:11:04;13.20;;;11.30;;
10461;SDS011;5278;42.656;23.374;2022-09-01T01:13:40;13.43;;;10.80;;
10461;SDS011;5278;42.656;23.374;2022-09-01T01:16:13;12.47;;;11.27;;
10461;SDS011;5278;42.656;23.374;2022-09-01T01:18:40;13.03;;;11.23;;
10461;SDS011;5278;42.656;23.374;2022-09-01T01:21:09;12.60;;;10.23;;
10461;SDS011;5278;42.656;23.374;2022-09-01T01:23:59;14.03;;;12.00;;
10461;SDS011;5278;42.656;23.374;2022-09-01T01:26:33;12.03;;;10.83;;
10461;SDS011;5278;42.656;23.374;2022-09-01T01:29:01;14.03;;;11.27;;
10461;SDS011;5278;42.656;23.374;2022-09-01T01:31:30;11.63;;;10.53;;
10461;SDS011;5278;42.656;23.374;2022-09-01T01:33:57;12.00;;;10.80;;
10461;SDS011;5278;42.656;23.374;2022-09-01T01:36:27;12.57;;;11.00;;
10461;SDS011;5278;42.656;23.374;2022-09-01T01:38:57;12.13;;;10.93;;
10461;SDS011;5278;42.656;23.374;2022-09-01T01:41:27;10.73;;;9.63;;
10461;SDS011;5278;42.656;23.374;2022-09-01T01:43:57;11.23;;;9.27;;
10461;SDS011;5278;42.656;23.374;2022-09-01T01:46:27;10.07;;;9.07;;
10461;SDS011;5278;42.656;23.374;2022-09-01T01:48:53;10.27;;;9.37;;
10461;SDS011;5278;42.656;23.374;2022-09-01T01:51:21;12.07;;;10.10;;
10461;SDS011;5278;42.656;23.374;2022-09-01T01:53:51;11.30;;;9.60;;
10461;SDS011;5278;42.656;23.374;2022-09-01T01:56:19;11.00;;;9.83;;
10461;SDS011;5278;42.656;23.374;2022-09-01T01:58:49;12.30;;;10.30;;
10461;SDS011;5278;42.656;23.374;2022-09-01T02:01:22;11.63;;;10.43;;
10461;SDS011;5278;42.656;23.374;2022-09-01T02:03:50;13.87;;;11.43;;
10461;SDS011;5278;42.656;23.374;2022-09-01T02:06:19;13.97;;;11.07;;
10461;SDS011;5278;42.656;23.374;2022-09-01T02:08:49;12.00;;;10.80;;
10461;SDS011;5278;42.656;23.374;2022-09-01T02:11:17;11.73;;;10.20;;
10461;SDS011;5278;42.656;23.374;2022-09-01T02:13:45;12.17;;;10.67;;
10461;SDS011;5278;42.656;23.374;2022-09-01T02:16:14;13.33;;;11.10;;
10461;SDS011;5278;42.656;23.374;2022-09-01T02:18:43;12.03;;;10.13;;
10461;SDS011;5278;42.656;23.374;2022-09-01T02:21:12;12.40;;;11.03;;
10461;SDS011;5278;42.656;23.374;2022-09-01T02:23:44;11.70;;;10.30;;
10461;SDS011;5278;42.656;23.374;2022-09-01T02:26:12;10.63;;;9.67;;
10461;SDS011;5278;42.656;23.374;2022-09-01T02:28:40;11.03;;;9.30;;
10461;SDS011;5278;42.656;23.374;2022-09-01T02:31:08;12.03;;;9.80;;
10461;SDS011;5278;42.656;23.374;2022-09-01T02:33:37;11.27;;;10.07;;
10461;SDS011;5278;42.656;23.374;2022-09-01T02:36:13;12.17;;;10.10;;
10461;SDS011;5278;42.656;23.374;2022-09-01T02:38:41;12.60;;;10.00;;
10461;SDS011;5278;42.656;23.374;2022-09-01T02:41:10;13.83;;;9.93;;
10461;SDS011;5278;42.656;23.374;2022-09-01T02:43:38;11.63;;;9.57;;
10461;SDS011;5278;42.656;23.374;2022-09-01T02:46:08;12.27;;;9.33;;
10461;SDS011;5278;42.656;23.374;2022-09-01T02:48:36;11.43;;;9.90;;
10461;SDS011;5278;42.656;23.374;2022-09-01T02:51:06;9.67;;;8.77;;
10461;SDS011;5278;42.656;23.374;2022-09-01T02:53:36;11.63;;;9.43;;
10461;SDS011;5278;42.656;23.374;2022-09-01T02:56:07;11.13;;;10.13;;
10461;SDS011;5278;42.656;23.374;2022-09-01T02:58:38;11.23;;;10.07;;
10461;SDS011;5278;42.656;23.374;2022-09-01T03:01:10;10.40;;;9.10;;
10461;SDS011;5278;42.656;23.374;2022-09-01T03:03:39;10.80;;;9.67;;
10461;SDS011;5278;42.656;23.374;2022-09-01T03:06:06;12.30;;;10.50;;
10461;SDS011;5278;42.656;23.374;2022-09-01T03:08:35;10.93;;;9.80;;
10461;SDS011;5278;42.656;23.374;2022-09-01T03:11:04;12.70;;;9.60;;
10461;SDS011;5278;42.656;23.374;2022-09-01T03:13:35;11.37;;;9.63;;
10461;SDS011;5278;42.656;23.374;2022-09-01T03:16:03;9.90;;;9.00;;
10461;SDS011;5278;42.656;23.374;2022-09-01T03:18:32;11.03;;;9.33;;
10461;SDS011;5278;42.656;23.374;2022-09-01T03:20:59;11.23;;;9.80;;
10461;SDS011;5278;42.656;23.374;2022-09-01T03:23:27;10.53;;;9.43;;
10461;SDS011;5278;42.656;23.374;2022-09-01T03:25:57;11.80;;;10.30;;
10461;SDS011;5278;42.656;23.374;2022-09-01T03:28:24;9.80;;;8.90;;
10461;SDS011;5278;42.656;23.374;2022-09-01T03:30:53;14.47;;;9.57;;
10461;SDS011;5278;42.656;23.374;2022-09-01T03:33:22;11.87;;;10.47;;
10461;SDS011;5278;42.656;23.374;2022-09-01T03:35:50;9.33;;;8.43;;
10461;SDS011;5278;42.656;23.374;2022-09-01T03:38:17;11.93;;;9.70;;
10461;SDS011;5278;42.656;23.374;2022-09-01T03:40:49;11.37;;;9.97;;
10461;SDS011;5278;42.656;23.374;2022-09-01T03:43:19;10.57;;;9.53;;
10461;SDS011;5278;42.656;23.374;2022-09-01T03:45:51;13.60;;;10.40;;
10461;SDS011;5278;42.656;23.374;2022-09-01T03:48:19;11.77;;;10.57;;
10461;SDS011;5278;42.656;23.374;2022-09-01T03:50:46;11.30;;;10.13;;
10461;SDS011;5278;42.656;23.374;2022-09-01T03:53:15;12.37;;;9.90;;
10461;SDS011;5278;42.656;23.374;2022-09-01T03:55:45;11.97;;;9.77;;
10461;SDS011;5278;42.656;23.374;2022-09-01T03:58:14;10.83;;;9.73;;
10461;SDS011;5278;42.656;23.374;2022-09-01T04:00:47;13.13;;;10.17;;
10461;SDS011;5278;42.656;23.374;2022-09-01T04:03:16;13.77;;;10.93;;
10461;SDS011;5278;42.656;23.374;2022-09-01T04:05:46;11.87;;;10.53;;
10461;SDS011;5278;42.656;23.374;2022-09-01T04:08:13;13.60;;;10.37;;
10461;SDS011;5278;42.656;23.374;2022-09-01T04:10:41;11.80;;;9.97;;
10461;SDS011;5278;42.656;23.374;2022-09-01T04:13:13;14.67;;;11.27;;
10461;SDS011;5278;42.656;23.374;2022-09-01T04:15:41;11.50;;;9.97;;
10461;SDS011;5278;42.656;23.374;2022-09-01T04:18:10;13.63;;;11.67;;
10461;SDS011;5278;42.656;23.374;2022-09-01T04:20:44;14.43;;;10.57;;
10461;SDS011;5278;42.656;23.374;2022-09-01T04:23:16;15.30;;;10.30;;
10461;SDS011;5278;42.656;23.374;2022-09-01T04:25:50;11.40;;;10.20;;
10461;SDS011;5278;42.656;23.374;2022-09-01T04:28:19;11.60;;;10.03;;
10461;SDS011;5278;42.656;23.374;2022-09-01T04:30:50;11.80;;;10.00;;
10461;SDS011;5278;42.656;23.374;2022-09-01T04:33:22;11.40;;;10.30;;
10461;SDS011;5278;42.656;23.374;2022-09-01T04:35:49;12.77;;;10.13;;
10461;SDS011;5278;42.656;23.374;2022-09-01T04:38:20;14.67;;;9.47;;
10461;SDS011;5278;42.656;23.374;2022-09-01T04:40:49;11.27;;;10.10;;
10461;SDS011;5278;42.656;23.374;2022-09-01T04:43:16;10.43;;;9.27;;
10461;SDS011;5278;42.656;23.374;2022-09-01T04:45:44;10.83;;;9.53;;
10461;SDS011;5278;42.656;23.374;2022-09-01T04:48:14;9.93;;;8.93;;
10461;SDS011;5278;42.656;23.374;2022-09-01T04:50:43;10.60;;;9.50;;
10461;SDS011;5278;42.656;23.374;2022-09-01T04:53:10;9.80;;;8.80;;
10461;SDS011;5278;42.656;23.374;2022-09-01T04:55:37;9.90;;;8.87;;
10461;SDS011;5278;42.656;23.374;2022-09-01T04:58:08;12.60;;;9.30;;
10461;SDS011;5278;42.656;23.374;2022-09-01T05:00:39;11.13;;;9.00;;
10461;SDS011;5278;42.656;23.374;2022-09-01T05:03:06;10.57;;;8.73;;
10461;SDS011;5278;42.656;23.374;2022-09-01T05:05:35;11.73;;;10.47;;
10461;SDS011;5278;42.656;23.374;2022-09-01T05:08:08;11.97;;;10.10;;
10461;SDS011;5278;42.656;23.374;2022-09-01T05:10:40;11.93;;;10.73;;
10461;SDS011;5278;42.656;23.374;2022-09-01T05:13:09;15.93;;;11.70;;
10461;SDS011;5278;42.656;23.374;2022-09-01T05:15:38;12.53;;;11.17;;
10461;SDS011;5278;42.656;23.374;2022-09-01T05:18:11;15.00;;;11.87;;
10461;SDS011;5278;42.656;23.374;2022-09-01T05:20:40;10.90;;;9.90;;
10461;SDS011;5278;42.656;23.374;2022-09-01T05:23:10;10.77;;;9.67;;
10461;SDS011;5278;42.656;23.374;2022-09-01T05:25:41;11.87;;;10.53;;
10461;SDS011;5278;42.656;23.374;2022-09-01T05:28:10;13.33;;;9.07;;
10461;SDS011;5278;42.656;23.374;2022-09-01T05:30:38;10.63;;;9.30;;
10461;SDS011;5278;42.656;23.374;2022-09-01T05:33:07;11.57;;;10.20;;
10461;SDS011;5278;42.656;23.374;2022-09-01T05:35:40;12.10;;;10.90;;
10461;SDS011;5278;42.656;23.374;2022-09-01T05:38:11;10.70;;;9.57;;
10461;SDS011;5278;42.656;23.374;2022-09-01T05:40:40;14.63;;;13.10;;
10461;SDS011;5278;42.656;23.374;2022-09-01T05:43:08;11.47;;;10.27;;
10461;SDS011;5278;42.656;23.374;2022-09-01T05:45:37;12.00;;;10.70;;
10461;SDS011;5278;42.656;23.374;2022-09-01T05:48:08;11.63;;;10.43;;
10461;SDS011;5278;42.656;23.374;2022-09-01T05:50:38;16.13;;;11.17;;
10461;SDS011;5278;42.656;23.374;2022-09-01T05:53:07;38.77;;;23.80;;
10461;SDS011;5278;42.656;23.374;2022-09-01T05:55:42;19.20;;;15.20;;
10461;SDS011;5278;42.656;23.374;2022-09-01T05:58:10;17.07;;;12.20;;
10461;SDS011;5278;42.656;23.374;2022-09-01T06:00:39;20.77;;;13.20;;
10461;SDS011;5278;42.656;23.374;2022-09-01T06:03:07;23.23;;;15.20;;
10461;SDS011;5278;42.656;23.374;2022-09-01T06:05:35;20.47;;;14.47;;
10461;SDS011;5278;42.656;23.374;2022-09-01T06:08:04;18.43;;;13.77;;
10461;SDS011;5278;42.656;23.374;2022-09-01T06:10:34;23.80;;;14.70;;
10461;SDS011;5278;42.656;23.374;2022-09-01T06:13:06;18.13;;;13.03;;
10461;SDS011;5278;42.656;23.374;2022-09-01T06:15:35;15.80;;;13.70;;
10461;SDS011;5278;42.656;23.374;2022-09-01T06:18:04;20.97;;;13.80;;
10461;SDS011;5278;42.656;23.374;2022-09-01T06:20:31;16.57;;;13.43;;
10461;SDS011;5278;42.656;23.374;2022-09-01T06:22:58;15.97;;;12.67;;
10461;SDS011;5278;42.656;23.374;2022-09-01T06:25:25;15.13;;;12.90;;
10461;SDS011;5278;42.656;23.374;2022-09-01T06:27:54;14.10;;;12.57;;
10461;SDS011;5278;42.656;23.374;2022-09-01T06:30:23;16.20;;;11.87;;
10461;SDS011;5278;42.656;23.374;2022-09-01T06:32:50;16.77;;;12.50;;
10461;SDS011;5278;42.656;23.374;2022-09-01T06:35:18;15.73;;;12.47;;
10461;SDS011;5278;42.656;23.374;2022-09-01T06:37:45;19.77;;;13.30;;
10461;SDS011;5278;42.656;23.374;2022-09-01T06:40:13;17.47;;;12.30;;
10461;SDS011;5278;42.656;23.374;2022-09-01T06:42:43;16.80;;;12.63;;
10461;SDS011;5278;42.656;23.374;2022-09-01T06:45:11;16.03;;;11.53;;
10461;SDS011;5278;42.656;23.374;2022-09-01T06:47:41;18.03;;;12.93;;
10461;SDS011;5278;42.656;23.374;2022-09-01T06:50:11;17.70;;;13.43;;
10461;SDS011;5278;42.656;23.374;2022-09-01T06:52:39;17.47;;;12.53;;
10461;SDS011;5278;42.656;23.374;2022-09-01T06:55:07;24.13;;;17.47;;
10461;SDS011;5278;42.656;23.374;2022-09-01T06:57:36;20.97;;;15.83;;
10461;SDS011;5278;42.656;23.374;2022-09-01T07:00:04;17.70;;;12.97;;
10461;SDS011;5278;42.656;23.374;2022-09-01T07:02:43;21.67;;;16.83;;
10461;SDS011;5278;42.656;23.374;2022-09-01T07:05:11;18.30;;;13.97;;
10461;SDS011;5278;42.656;23.374;2022-09-01T07:07:45;15.93;;;14.03;;
10461;SDS011;5278;42.656;23.374;2022-09-01T07:10:12;19.23;;;15.97;;
10461;SDS011;5278;42.656;23.374;2022-09-01T07:12:40;22.40;;;15.17;;
10461;SDS011;5278;42.656;23.374;2022-09-01T07:15:10;17.33;;;14.63;;
10461;SDS011;5278;42.656;23.374;2022-09-01T07:17:39;20.02;;;15.25;;
10461;SDS011;5278;42.656;23.374;2022-09-01T07:20:10;16.55;;;14.45;;
10461;SDS011;5278;42.656;23.374;2022-09-01T07:22:37;17.05;;;14.27;;
10461;SDS011;5278;42.656;23.374;2022-09-01T07:25:04;16.77;;;14.25;;
10461;SDS011;5278;42.656;23.374;2022-09-01T07:27:32;21.85;;;15.45;;
10461;SDS011;5278;42.656;23.374;2022-09-01T07:30:00;20.25;;;16.77;;
10461;SDS011;5278;42.656;23.374;2022-09-01T07:32:27;17.83;;;14.77;;
10461;SDS011;5278;42.656;23.374;2022-09-01T07:34:55;18.73;;;14.65;;
10461;SDS011;5278;42.656;23.374;2022-09-01T07:37:24;20.38;;;13.98;;
10461;SDS011;5278;42.656;23.374;2022-09-01T07:39:52;18.10;;;14.93;;
10461;SDS011;5278;42.656;23.374;2022-09-01T07:42:21;18.55;;;14.20;;
10461;SDS011;5278;42.656;23.374;2022-09-01T07:44:48;16.35;;;13.82;;
10461;SDS011;5278;42.656;23.374;2022-09-01T07:47:17;16.33;;;14.02;;
10461;SDS011;5278;42.656;23.374;2022-09-01T07:49:43;17.75;;;14.40;;
10461;SDS011;5278;42.656;23.374;2022-09-01T07:52:13;14.20;;;12.73;;
10461;SDS011;5278;42.656;23.374;2022-09-01T07:54:43;15.80;;;13.95;;
10461;SDS011;5278;42.656;23.374;2022-09-01T07:57:10;14.02;;;12.63;;
10461;SDS011;5278;42.656;23.374;2022-09-01T07:59:39;14.82;;;13.27;;
10461;SDS011;5278;42.656;23.374;2022-09-01T08:02:07;14.95;;;13.00;;
10461;SDS011;5278;42.656;23.374;2022-09-01T08:04:35;14.10;;;11.90;;
10461;SDS011;5278;42.656;23.374;2022-09-01T08:07:04;12.68;;;10.88;;
10461;SDS011;5278;42.656;23.374;2022-09-01T08:09:30;14.38;;;11.88;;
10461;SDS011;5278;42.656;23.374;2022-09-01T08:11:59;15.70;;;14.10;;
10461;SDS011;5278;42.656;23.374;2022-09-01T08:14:26;19.35;;;16.48;;
10461;SDS011;5278;42.656;23.374;2022-09-01T08:16:53;13.18;;;11.77;;
10461;SDS011;5278;42.656;23.374;2022-09-01T08:19:20;13.63;;;11.20;;
10461;SDS011;5278;42.656;23.374;2022-09-01T08:21:47;13.30;;;11.90;;
10461;SDS011;5278;42.656;23.374;2022-09-01T08:24:14;14.82;;;12.15;;
10461;SDS011;5278;42.656;23.374;2022-09-01T08:26:41;13.07;;;11.75;;
10461;SDS011;5278;42.656;23.374;2022-09-01T08:29:09;12.65;;;11.23;;
10461;SDS011;5278;42.656;23.374;2022-09-01T08:31:36;12.00;;;10.80;;
10461;SDS011;5278;42.656;23.374;2022-09-01T08:34:03;13.23;;;11.88;;
10461;SDS011;5278;42.656;23.374;2022-09-01T08:36:30;13.23;;;11.38;;
10461;SDS011;5278;42.656;23.374;2022-09-01T08:38:57;13.07;;;11.65;;
10461;SDS011;5278;42.656;23.374;2022-09-01T08:41:36;17.25;;;13.68;;
10461;SDS011;5278;42.656;23.374;2022-09-01T08:44:12;16.75;;;15.07;;
10461;SDS011;5278;42.656;23.374;2022-09-01T08:46:46;13.50;;;12.00;;
10461;SDS011;5278;42.656;23.374;2022-09-01T08:49:21;12.45;;;11.15;;
10461;SDS011;5278;42.656;23.374;2022-09-01T08:51:51;13.98;;;10.65;;
10461;SDS011;5278;42.656;23.374;2022-09-01T08:54:25;12.30;;;10.80;;
10461;SDS011;5278;42.656;23.374;2022-09-01T08:57:00;13.85;;;11.35;;
10461;SDS011;5278;42.656;23.374;2022-09-01T08:59:31;14.20;;;11.63;;
10461;SDS011;5278;42.656;23.374;2022-09-01T09:01:59;12.68;;;10.90;;
10461;SDS011;5278;42.656;23.374;2022-09-01T09:04:46;11.65;;;10.38;;
10461;SDS011;5278;42.656;23.374;2022-09-01T09:07:20;11.63;;;10.43;;
10461;SDS011;5278;42.656;23.374;2022-09-01T09:10:04;11.10;;;9.68;;
10461;SDS011;5278;42.656;23.374;2022-09-01T09:12:38;9.93;;;8.90;;
10461;SDS011;5278;42.656;23.374;2022-09-01T09:15:21;12.15;;;10.95;;
10461;SDS011;5278;42.656;23.374;2022-09-01T09:18:00;26.75;;;18.40;;
10461;SDS011;5278;42.656;23.374;2022-09-01T09:20:37;21.13;;;15.45;;
10461;SDS011;5278;42.656;23.374;2022-09-01T09:23:05;16.45;;;14.50;;
10461;SDS011;5278;42.656;23.374;2022-09-01T09:25:41;13.02;;;10.15;;
10461;SDS011;5278;42.656;23.374;2022-09-01T09:28:08;11.82;;;10.52;;
10461;SDS011;5278;42.656;23.374;2022-09-01T09:30:37;12.25;;;11.05;;
10461;SDS011;5278;42.656;23.374;2022-09-01T09:33:07;13.63;;;10.88;;
10461;SDS011;5278;42.656;23.374;2022-09-01T09:35:37;16.23;;;13.23;;
10461;SDS011;5278;42.656;23.374;2022-09-01T09:38:14;16.45;;;11.98;;
10461;SDS011;5278;42.656;23.374;2022-09-01T09:40:56;15.45;;;11.48;;
10461;SDS011;5278;42.656;23.374;2022-09-01T09:43:25;14.98;;;12.23;;
10461;SDS011;5278;42.656;23.374;2022-09-01T09:46:18;13.38;;;11.98;;
10461;SDS011;5278;42.656;23.374;2022-09-01T09:48:48;13.27;;;11.98;;
10461;SDS011;5278;42.656;23.374;2022-09-01T09:51:31;12.75;;;11.43;;
10461;SDS011;5278;42.656;23.374;2022-09-01T09:54:09;12.93;;;11.75;;
10461;SDS011;5278;42.656;23.374;2022-09-01T09:56:38;14.30;;;12.18;;
10461;SDS011;5278;42.656;23.374;2022-09-01T10:01:57;21.13;;;14.48;;
10461;SDS011;5278;42.656;23.374;2022-09-01T10:04:32;14.32;;;12.68;;
10461;SDS011;5278;42.656;23.374;2022-09-01T10:07:04;12.85;;;11.32;;
10461;SDS011;5278;42.656;23.374;2022-09-01T10:09:50;15.07;;;12.35;;
10461;SDS011;5278;42.656;23.374;2022-09-01T10:12:17;12.68;;;11.02;;
10461;SDS011;5278;42.656;23.374;2022-09-01T10:14:46;15.35;;;12.18;;
10461;SDS011;5278;42.656;23.374;2022-09-01T10:17:19;18.13;;;12.50;;
10461;SDS011;5278;42.656;23.374;2022-09-01T10:19:54;11.82;;;10.45;;
10461;SDS011;5278;42.656;23.374;2022-09-01T10:22:31;13.80;;;10.25;;
10461;SDS011;5278;42.656;23.374;2022-09-01T10:24:59;13.60;;;10.18;;
10461;SDS011;5278;42.656;23.374;2022-09-01T10:27:28;12.57;;;9.55;;
10461;SDS011;5278;42.656;23.374;2022-09-01T10:30:03;12.27;;;9.97;;
10461;SDS011;5278;42.656;23.374;2022-09-01T10:32:36;14.43;;;11.50;;
10461;SDS011;5278;42.656;23.374;2022-09-01T10:35:06;13.80;;;10.67;;
10461;SDS011;5278;42.656;23.374;2022-09-01T10:37:39;14.83;;;10.63;;
10461;SDS011;5278;42.656;23.374;2022-09-01T10:40:12;14.43;;;10.53;;
10461;SDS011;5278;42.656;23.374;2022-09-01T10:42:44;12.70;;;10.87;;
10461;SDS011;5278;42.656;23.374;2022-09-01T10:45:19;12.10;;;10.33;;
10461;SDS011;5278;42.656;23.374;2022-09-01T10:48:09;14.13;;;11.07;;
10461;SDS011;5278;42.656;23.374;2022-09-01T10:50:49;12.53;;;11.17;;
10461;SDS011;5278;42.656;23.374;2022-09-01T10:56:06;15.40;;;12.00;;
10461;SDS011;5278;42.656;23.374;2022-09-01T10:58:48;13.43;;;11.03;;
10461;SDS011;5278;42.656;23.374;2022-09-01T11:07:49;12.77;;;10.33;;
10461;SDS011;5278;42.656;23.374;2022-09-01T11:10:32;11.87;;;10.37;;
10461;SDS011;5278;42.656;23.374;2022-09-01T11:13:11;12.23;;;10.43;;
10461;SDS011;5278;42.656;23.374;2022-09-01T11:15:48;15.67;;;10.00;;
10461;SDS011;5278;42.656;23.374;2022-09-01T11:18:16;12.20;;;10.00;;
10461;SDS011;5278;42.656;23.374;2022-09-01T11:20:50;12.70;;;9.87;;
10461;SDS011;5278;42.656;23.374;2022-09-01T11:23:22;11.23;;;9.73;;
10461;SDS011;5278;42.656;23.374;2022-09-01T11:25:51;11.57;;;9.87;;
10461;SDS011;5278;42.656;23.374;2022-09-01T11:34:13;15.23;;;9.57;;
10461;SDS011;5278;42.656;23.374;2022-09-01T11:36:46;12.60;;;9.93;;
10461;SDS011;5278;42.656;23.374;2022-09-01T11:39:25;10.13;;;9.13;;
10461;SDS011;5278;42.656;23.374;2022-09-01T11:41:57;15.30;;;10.23;;
10461;SDS011;5278;42.656;23.374;2022-09-01T11:44:29;13.67;;;10.97;;
10461;SDS011;5278;42.656;23.374;2022-09-01T11:47:04;14.03;;;11.17;;
10461;SDS011;5278;42.656;23.374;2022-09-01T11:49:34;10.82;;;9.70;;
10461;SDS011;5278;42.656;23.374;2022-09-01T11:52:06;11.50;;;9.93;;
10461;SDS011;5278;42.656;23.374;2022-09-01T11:54:42;13.23;;;9.43;;
10461;SDS011;5278;42.656;23.374;2022-09-01T11:57:18;11.57;;;9.30;;
10461;SDS011;5278;42.656;23.374;2022-09-01T11:59:48;10.75;;;9.60;;
10461;SDS011;5278;42.656;23.374;2022-09-01T12:02:16;10.65;;;9.65;;
10461;SDS011;5278;42.656;23.374;2022-09-01T12:04:44;11.63;;;9.68;;
10461;SDS011;5278;42.656;23.374;2022-09-01T12:07:12;13.00;;;10.38;;
10461;SDS011;5278;42.656;23.374;2022-09-01T12:09:55;10.93;;;9.93;;
10461;SDS011;5278;42.656;23.374;2022-09-01T12:12:30;10.50;;;9.45;;
10461;SDS011;5278;42.656;23.374;2022-09-01T12:15:00;12.00;;;9.32;;
10461;SDS011;5278;42.656;23.374;2022-09-01T12:17:28;10.60;;;9.57;;
10461;SDS011;5278;42.656;23.374;2022-09-01T12:19:58;11.15;;;9.38;;
10461;SDS011;5278;42.656;23.374;2022-09-01T12:22:51;11.48;;;9.93;;
10461;SDS011;5278;42.656;23.374;2022-09-01T12:25:20;10.30;;;9.20;;
10461;SDS011;5278;42.656;23.374;2022-09-01T12:27:49;11.65;;;9.43;;
10461;SDS011;5278;42.656;23.374;2022-09-01T12:30:17;17.88;;;10.13;;
10461;SDS011;5278;42.656;23.374;2022-09-01T12:32:45;12.43;;;9.33;;
10461;SDS011;5278;42.656;23.374;2022-09-01T12:35:14;14.13;;;12.63;;
10461;SDS011;5278;42.656;23.374;2022-09-01T12:37:46;13.00;;;11.23;;
10461;SDS011;5278;42.656;23.374;2022-09-01T12:40:23;15.93;;;11.07;;
10461;SDS011;5278;42.656;23.374;2022-09-01T12:42:55;11.47;;;10.27;;
10461;SDS011;5278;42.656;23.374;2022-09-01T12:45:38;11.77;;;10.57;;
10461;SDS011;5278;42.656;23.374;2022-09-01T12:48:22;12.63;;;10.10;;
10461;SDS011;5278;42.656;23.374;2022-09-01T12:50:52;14.57;;;10.47;;
10461;SDS011;5278;42.656;23.374;2022-09-01T12:53:20;12.57;;;10.73;;
10461;SDS011;5278;42.656;23.374;2022-09-01T12:58:48;14.50;;;10.67;;
10461;SDS011;5278;42.656;23.374;2022-09-01T13:01:28;12.80;;;10.60;;
10461;SDS011;5278;42.656;23.374;2022-09-01T13:04:10;11.70;;;10.50;;
10461;SDS011;5278;42.656;23.374;2022-09-01T13:06:39;11.17;;;9.97;;
10461;SDS011;5278;42.656;23.374;2022-09-01T13:09:06;13.00;;;10.03;;
10461;SDS011;5278;42.656;23.374;2022-09-01T13:11:35;11.07;;;9.57;;
10461;SDS011;5278;42.656;23.374;2022-09-01T13:14:02;13.03;;;10.40;;
10461;SDS011;5278;42.656;23.374;2022-09-01T13:16:30;13.07;;;9.47;;
10461;SDS011;5278;42.656;23.374;2022-09-01T13:18:57;11.73;;;9.53;;
10461;SDS011;5278;42.656;23.374;2022-09-01T13:21:25;12.07;;;9.97;;
10461;SDS011;5278;42.656;23.374;2022-09-01T13:23:53;20.70;;;10.27;;
10461;SDS011;5278;42.656;23.374;2022-09-01T13:26:21;12.67;;;10.13;;
10461;SDS011;5278;42.656;23.374;2022-09-01T13:28:51;11.33;;;9.63;;
10461;SDS011;5278;42.656;23.374;2022-09-01T13:31:18;13.10;;;10.73;;
10461;SDS011;5278;42.656;23.374;2022-09-01T13:33:45;12.03;;;10.33;;
10461;SDS011;5278;42.656;23.374;2022-09-01T13:36:12;12.80;;;10.90;;
10461;SDS011;5278;42.656;23.374;2022-09-01T13:38:40;15.60;;;10.73;;
10461;SDS011;5278;42.656;23.374;2022-09-01T13:41:07;11.90;;;10.30;;
10461;SDS011;5278;42.656;23.374;2022-09-01T13:43:35;11.43;;;10.23;;
10461;SDS011;5278;42.656;23.374;2022-09-01T13:46:04;14.40;;;10.97;;
10461;SDS011;5278;42.656;23.374;2022-09-01T13:48:31;13.87;;;11.57;;
10461;SDS011;5278;42.656;23.374;2022-09-01T13:50:59;13.70;;;11.20;;
10461;SDS011;5278;42.656;23.374;2022-09-01T13:53:26;14.60;;;11.70;;
10461;SDS011;5278;42.656;23.374;2022-09-01T13:55:55;15.03;;;12.63;;
10461;SDS011;5278;42.656;23.374;2022-09-01T13:58:23;13.37;;;11.73;;
10461;SDS011;5278;42.656;23.374;2022-09-01T14:00:50;13.27;;;10.80;;
10461;SDS011;5278;42.656;23.374;2022-09-01T14:03:19;13.83;;;10.90;;
10461;SDS011;5278;42.656;23.374;2022-09-01T14:05:49;13.30;;;12.00;;
10461;SDS011;5278;42.656;23.374;2022-09-01T14:08:17;12.57;;;11.37;;
10461;SDS011;5278;42.656;23.374;2022-09-01T14:10:46;11.90;;;10.43;;
10461;SDS011;5278;42.656;23.374;2022-09-01T14:13:15;13.30;;;10.60;;
10461;SDS011;5278;42.656;23.374;2022-09-01T14:15:42;12.53;;;10.87;;
10461;SDS011;5278;42.656;23.374;2022-09-01T14:18:11;11.80;;;10.57;;
10461;SDS011;5278;42.656;23.374;2022-09-01T14:20:42;11.47;;;10.47;;
10461;SDS011;5278;42.656;23.374;2022-09-01T14:23:11;12.33;;;11.17;;
10461;SDS011;5278;42.656;23.374;2022-09-01T14:25:41;12.03;;;10.93;;
10461;SDS011;5278;42.656;23.374;2022-09-01T14:28:09;13.90;;;12.10;;
10461;SDS011;5278;42.656;23.374;2022-09-01T14:30:38;13.40;;;12.10;;
10461;SDS011;5278;42.656;23.374;2022-09-01T14:33:07;13.47;;;12.07;;
10461;SDS011;5278;42.656;23.374;2022-09-01T14:35:36;13.47;;;11.80;;
10461;SDS011;5278;42.656;23.374;2022-09-01T14:38:05;12.13;;;10.20;;
10461;SDS011;5278;42.656;23.374;2022-09-01T14:40:33;13.60;;;9.90;;
10461;SDS011;5278;42.656;23.374;2022-09-01T14:43:03;11.33;;;10.20;;
10461;SDS011;5278;42.656;23.374;2022-09-01T14:45:31;13.13;;;11.77;;
10461;SDS011;5278;42.656;23.374;2022-09-01T14:47:59;15.60;;;12.70;;
10461;SDS011;5278;42.656;23.374;2022-09-01T14:50:26;11.90;;;10.53;;
10461;SDS011;5278;42.656;23.374;2022-09-01T14:52:57;15.93;;;12.90;;
10461;SDS011;5278;42.656;23.374;2022-09-01T14:55:27;16.23;;;11.40;;
10461;SDS011;5278;42.656;23.374;2022-09-01T14:57:55;16.97;;;11.70;;
10461;SDS011;5278;42.656;23.374;2022-09-01T15:00:24;15.07;;;11.10;;
10461;SDS011;5278;42.656;23.374;2022-09-01T15:02:52;18.17;;;14.23;;
10461;SDS011;5278;42.656;23.374;2022-09-01T15:05:19;14.47;;;12.33;;